createdAt,value
2022-12-22T00:05:38.103Z,102063.25
2022-12-22T00:08:52.922Z,102053.19
2022-12-22T00:11:44.608Z,102050.50
2022-12-22T00:20:50.413Z,102053.91
2022-12-22T00:24:02.797Z,102046.94
2022-12-22T00:26:52.250Z,102051.38
2022-12-22T00:29:44.697Z,102045.41
2022-12-22T00:39:01.984Z,102052.28
2022-12-22T00:41:57.121Z,102042.09
2022-12-22T00:45:03.489Z,102050.75
2022-12-22T00:48:11.037Z,102059.03
2022-12-22T00:51:00.821Z,102064.50
2022-12-22T00:53:58.382Z,102063.66
2022-12-22T00:56:51.033Z,102068.78
2022-12-22T01:00:18.529Z,102073.34
2022-12-22T01:03:28.644Z,102074.22
2022-12-22T01:06:29.624Z,102088.19
2022-12-22T01:12:56.789Z,102086.94
2022-12-22T01:16:10.403Z,102082.69
2022-12-22T01:19:26.511Z,102087.25
2022-12-22T01:26:10.704Z,102088.94
2022-12-22T01:29:09.493Z,102091.66
2022-12-22T01:31:58.183Z,102084.88
2022-12-22T01:37:59.663Z,102096.22
2022-12-22T01:40:52.409Z,102086.97
2022-12-22T01:43:52.520Z,102099.22
2022-12-22T01:46:47.630Z,102104.56
2022-12-22T01:52:48.060Z,102108.97
2022-12-22T01:55:45.415Z,102102.88
2022-12-22T01:59:03.215Z,102102.31
2022-12-22T02:02:04.293Z,102109.38
2022-12-22T02:05:12.264Z,102105.31
2022-12-22T02:08:21.655Z,102087.72
2022-12-22T02:11:30.573Z,102081.69
2022-12-22T02:14:44.158Z,102079.34
2022-12-22T02:17:56.682Z,102072.53
2022-12-22T02:24:10.071Z,102071.56
2022-12-22T02:27:12.101Z,102077.78
2022-12-22T02:30:08.848Z,102075.75
2022-12-22T02:40:03.124Z,102078.28
2022-12-22T02:43:06.625Z,102084.66
2022-12-22T02:46:06.757Z,102091.47
2022-12-22T02:49:03.336Z,102096.25
2022-12-22T02:51:54.264Z,102112.19
2022-12-22T02:54:47.598Z,102121.97
2022-12-22T02:58:25.651Z,102116.22
2022-12-22T03:01:12.249Z,102108.13
2022-12-22T03:03:58.888Z,102114.53
2022-12-22T03:06:52.884Z,102114.00
2022-12-22T03:09:40.147Z,102109.69
2022-12-22T03:12:30.470Z,102117.91
2022-12-22T03:15:23.958Z,102092.19
2022-12-22T03:18:26.904Z,102087.75
2022-12-22T03:21:19.365Z,102079.03
2022-12-22T03:24:13.710Z,102072.34
2022-12-22T03:26:48.054Z,102079.34
2022-12-22T03:29:38.010Z,102095.97
2022-12-22T03:34:59.784Z,102101.84
2022-12-22T03:37:46.837Z,102094.78
2022-12-22T03:40:29.788Z,102090.66
2022-12-22T03:43:25.586Z,102092.16
2022-12-22T03:49:36.859Z,102091.34
2022-12-22T03:52:16.343Z,102098.34
2022-12-22T03:54:58.801Z,102104.22
2022-12-22T03:57:33.167Z,102101.97
2022-12-22T04:00:14.151Z,102099.59
2022-12-22T04:02:48.255Z,102100.97
2022-12-22T04:05:24.579Z,102099.19
2022-12-22T04:07:55.738Z,102113.09
2022-12-22T04:10:52.027Z,102105.06
2022-12-22T04:13:24.614Z,102093.34
2022-12-22T04:15:53.111Z,102096.38
2022-12-22T04:18:32.283Z,102110.81
2022-12-22T04:21:05.762Z,102102.81
2022-12-22T04:23:53.196Z,102110.16
2022-12-22T04:26:30.474Z,102105.75
2022-12-22T04:29:24.674Z,102109.47
2022-12-22T04:32:25.125Z,102105.88
2022-12-22T04:35:10.552Z,102106.31
2022-12-22T04:37:42.012Z,102098.91
2022-12-22T04:40:13.784Z,102097.09
2022-12-22T04:42:57.117Z,102100.00
2022-12-22T04:45:50.948Z,102093.13
2022-12-22T04:48:38.553Z,102099.81
2022-12-22T04:51:08.821Z,102112.75
2022-12-22T04:53:47.911Z,102119.72
2022-12-22T04:56:41.705Z,102124.72
2022-12-22T04:59:20.026Z,102127.19
2022-12-22T05:01:50.175Z,102133.22
2022-12-22T05:04:26.035Z,102124.50
2022-12-22T05:07:17.172Z,102132.22
2022-12-22T05:09:58.380Z,102136.66
2022-12-22T05:12:48.662Z,102132.88
2022-12-22T05:15:23.522Z,102134.63
2022-12-22T05:20:43.720Z,102137.78
2022-12-22T05:23:17.575Z,102145.72
2022-12-22T05:25:58.526Z,102157.66
2022-12-22T05:28:33.851Z,102172.22
2022-12-22T05:34:36.906Z,102166.81
2022-12-22T05:37:11.191Z,102167.44
2022-12-22T05:39:40.782Z,102153.25
2022-12-22T05:48:45.921Z,102155.09
2022-12-22T05:51:34.625Z,102158.53
2022-12-22T05:54:09.559Z,102158.97
2022-12-22T05:56:41.584Z,102161.75
2022-12-22T06:02:47.767Z,102158.88
2022-12-22T06:05:18.948Z,102165.06
2022-12-22T06:08:14.925Z,102165.88
2022-12-22T06:10:48.035Z,102168.97
2022-12-22T06:13:21.197Z,102173.34
2022-12-22T06:21:28.502Z,102174.66
2022-12-22T06:24:00.320Z,102166.97
2022-12-22T06:29:59.403Z,102175.34
2022-12-22T06:32:29.877Z,102170.31
2022-12-22T06:35:01.115Z,102177.28
2022-12-22T06:40:44.665Z,102172.03
2022-12-22T06:43:13.906Z,102177.75
2022-12-22T06:45:47.788Z,102183.69
2022-12-22T06:48:35.813Z,102175.03
2022-12-22T06:51:05.323Z,102182.25
2022-12-22T06:54:03.301Z,102188.97
2022-12-22T06:56:44.004Z,102188.69
2022-12-22T06:59:17.014Z,102185.66
2022-12-22T07:07:46.794Z,102176.00
2022-12-22T07:10:18.107Z,102183.91
2022-12-22T07:12:48.598Z,102184.13
2022-12-22T07:18:18.453Z,102203.81
2022-12-22T07:20:52.796Z,102195.78
2022-12-22T07:23:24.656Z,102196.19
2022-12-22T07:26:05.031Z,102203.28
2022-12-22T07:28:48.675Z,102211.53
2022-12-22T07:37:57.265Z,102212.09
2022-12-22T07:44:12.050Z,102224.13
2022-12-22T07:47:06.486Z,102220.72
2022-12-22T07:50:26.343Z,102220.16
2022-12-22T07:53:13.742Z,102223.69
2022-12-22T07:56:27.559Z,102229.97
2022-12-22T07:59:22.963Z,102231.84
2022-12-22T08:02:22.500Z,102237.03
2022-12-22T08:05:35.129Z,102252.22
2022-12-22T08:14:31.938Z,102259.13
2022-12-22T08:19:56.155Z,102246.50
2022-12-22T08:22:39.113Z,102241.56
2022-12-22T08:32:10.081Z,102248.75
2022-12-22T08:34:46.086Z,102251.50
2022-12-22T08:40:53.421Z,102247.38
2022-12-22T08:46:33.695Z,102245.13
2022-12-22T08:49:18.067Z,102235.19
2022-12-22T08:52:02.511Z,102247.34
2022-12-22T08:54:55.393Z,102249.75
2022-12-22T09:03:48.712Z,102252.88
2022-12-22T09:06:36.296Z,102243.94
2022-12-22T09:09:31.306Z,102246.81
2022-12-22T09:12:01.636Z,102247.66
2022-12-22T09:14:38.120Z,102240.78
2022-12-22T09:18:13.492Z,102244.72
2022-12-22T09:23:49.761Z,102266.81
2022-12-22T09:26:39.057Z,102268.47
2022-12-22T09:29:52.994Z,102266.41
2022-12-22T09:36:20.694Z,102260.22
2022-12-22T09:38:56.510Z,102251.72
2022-12-22T09:48:03.229Z,102278.06
2022-12-22T09:54:08.089Z,102276.13
2022-12-22T09:57:18.457Z,102268.44
2022-12-22T10:00:27.676Z,102273.03
2022-12-22T10:03:05.321Z,102274.69
2022-12-22T10:05:39.243Z,102261.75
2022-12-22T10:11:29.214Z,102245.34
2022-12-22T10:14:00.252Z,102236.28
2022-12-22T10:20:35.873Z,102255.56
2022-12-22T10:23:29.382Z,102255.72
2022-12-22T10:27:12.522Z,102248.63
2022-12-22T10:42:17.364Z,102226.66
2022-12-22T10:57:27.064Z,102200.31
2022-12-22T11:01:08.368Z,102202.38
2022-12-22T11:11:44.653Z,102199.28
2022-12-22T11:54:10.573Z,102142.41
2022-12-22T12:39:36.870Z,102067.88
2022-12-22T12:42:05.274Z,102069.06
2022-12-22T12:44:38.082Z,102063.19
2022-12-22T12:47:09.313Z,102054.38
2022-12-22T12:49:38.134Z,102049.47
2022-12-22T12:52:10.741Z,102056.75
2022-12-22T12:54:40.262Z,102049.16
2022-12-22T12:57:08.277Z,102049.69
2022-12-22T12:59:41.867Z,102037.53
2022-12-22T13:02:30.425Z,102034.59
2022-12-22T13:05:35.835Z,102031.81
2022-12-22T13:08:33.157Z,102031.91
2022-12-22T13:12:11.340Z,102017.97
2022-12-22T13:15:07.705Z,102018.53
2022-12-22T13:18:15.115Z,102003.97
2022-12-22T13:21:12.237Z,102009.28
2022-12-22T13:24:30.021Z,102004.28
2022-12-22T13:27:36.935Z,102002.78
2022-12-22T13:30:22.831Z,102004.31
2022-12-22T13:33:02.768Z,101996.31
2022-12-22T13:35:36.525Z,101988.97
2022-12-22T13:38:33.320Z,101991.31
2022-12-22T13:41:10.463Z,101979.28
2022-12-22T13:43:42.730Z,101982.19
2022-12-22T13:46:12.072Z,101977.34
2022-12-22T13:52:05.226Z,101984.81
2022-12-22T13:54:43.045Z,101978.84
2022-12-22T14:00:17.857Z,101972.59
2022-12-22T14:03:21.641Z,101979.63
2022-12-22T14:09:01.332Z,101978.38
2022-12-22T14:11:31.830Z,101977.19
2022-12-22T14:14:21.484Z,101965.97
2022-12-22T14:17:08.203Z,101962.91
2022-12-22T14:19:47.975Z,101962.03
2022-12-22T14:22:22.917Z,101970.38
2022-12-22T14:25:10.082Z,101979.50
2022-12-22T14:27:46.109Z,101989.00
2022-12-22T14:30:38.779Z,101994.03
2022-12-22T14:33:36.103Z,101999.81
2022-12-22T14:39:38.311Z,101991.41
2022-12-22T14:42:18.879Z,101995.06
2022-12-22T14:44:50.165Z,101995.69
2022-12-22T14:47:30.460Z,101992.84
2022-12-22T14:50:04.712Z,101993.56
2022-12-22T14:53:00.973Z,102011.38
2022-12-22T14:55:47.460Z,102015.06
2022-12-22T14:58:27.976Z,102011.13
2022-12-22T15:01:23.964Z,102006.31
2022-12-22T15:04:06.710Z,102021.50
2022-12-22T15:06:52.339Z,102017.91
2022-12-22T15:10:13.799Z,102017.63
2022-12-22T15:12:45.344Z,102005.03
2022-12-22T15:18:24.872Z,101996.94
2022-12-22T15:21:13.461Z,101986.25
2022-12-22T15:24:09.818Z,101981.03
2022-12-22T15:29:52.829Z,101978.38
2022-12-22T15:32:37.867Z,101969.56
2022-12-22T15:38:38.753Z,102000.25
2022-12-22T15:41:29.260Z,102002.22
2022-12-22T15:44:38.508Z,102020.69
2022-12-22T15:47:39.367Z,102024.13
2022-12-22T15:50:45.262Z,102037.16
2022-12-22T15:53:28.055Z,102037.31
2022-12-22T15:55:58.838Z,102037.28
2022-12-22T16:07:50.814Z,102009.81
2022-12-22T16:10:26.417Z,101997.44
2022-12-22T16:13:04.050Z,102015.44
2022-12-22T16:15:55.519Z,102011.41
2022-12-22T16:21:38.755Z,102031.53
2022-12-22T16:24:39.706Z,102032.25
2022-12-22T16:27:26.949Z,102031.16
2022-12-22T16:30:26.761Z,102033.19
2022-12-22T16:33:01.978Z,102034.00
2022-12-22T16:35:35.914Z,102039.28
2022-12-22T16:38:06.566Z,102041.75
2022-12-22T16:43:52.594Z,102051.38
2022-12-22T16:46:36.408Z,102056.63
2022-12-22T16:49:21.482Z,102060.13
2022-12-22T16:51:58.893Z,102063.72
2022-12-22T16:54:33.523Z,102065.38
2022-12-22T16:57:00.787Z,102076.78
2022-12-22T16:59:27.873Z,102071.41
2022-12-22T17:01:59.701Z,102075.59
2022-12-22T17:04:37.538Z,102075.84
2022-12-22T17:13:45.508Z,102079.88
2022-12-22T17:16:25.699Z,102077.28
2022-12-22T17:18:53.302Z,102072.22
2022-12-22T17:21:23.495Z,102065.81
2022-12-22T17:23:52.466Z,102068.59
2022-12-22T17:26:25.913Z,102073.94
2022-12-22T17:28:56.280Z,102074.81
2022-12-22T17:31:25.058Z,102086.47
2022-12-22T17:33:53.885Z,102074.63
2022-12-22T17:36:26.630Z,102090.44
2022-12-22T17:38:56.677Z,102086.00
2022-12-22T17:41:23.744Z,102104.16
2022-12-22T17:43:50.928Z,102100.94
2022-12-22T17:46:19.049Z,102100.88
2022-12-22T17:48:48.387Z,102106.97
2022-12-22T17:51:17.592Z,102094.22
2022-12-22T17:53:59.262Z,102106.66
2022-12-22T17:56:32.999Z,102097.13
2022-12-22T17:59:00.255Z,102091.88
2022-12-22T18:01:28.684Z,102088.38
2022-12-22T18:03:57.730Z,102085.88
2022-12-22T18:06:28.067Z,102080.31
2022-12-22T18:08:58.387Z,102089.25
2022-12-22T18:11:28.569Z,102090.97
2022-12-22T18:14:02.261Z,102088.00
2022-12-22T18:16:31.842Z,102092.47
2022-12-22T18:19:01.836Z,102095.34
2022-12-22T18:21:29.098Z,102094.63
2022-12-22T18:23:59.062Z,102096.97
2022-12-22T18:26:30.221Z,102100.50
2022-12-22T18:29:00.609Z,102101.53
2022-12-22T18:31:30.050Z,102104.91
2022-12-22T18:33:59.986Z,102105.72
2022-12-22T18:36:32.350Z,102112.63
2022-12-22T18:39:01.471Z,102106.00
2022-12-22T18:41:37.544Z,102100.28
2022-12-22T18:44:04.586Z,102101.91
2022-12-22T18:46:36.873Z,102097.59
2022-12-22T18:49:07.413Z,102094.94
2022-12-22T18:51:34.723Z,102097.56
2022-12-22T18:54:03.955Z,102092.47
2022-12-22T18:56:34.883Z,102090.53
2022-12-22T18:59:12.015Z,102087.38
2022-12-22T19:01:49.390Z,102087.81
2022-12-22T19:04:16.938Z,102093.03
2022-12-22T19:07:01.871Z,102087.41
2022-12-22T19:09:29.961Z,102069.69
2022-12-22T19:11:57.000Z,102080.59
2022-12-22T19:14:24.964Z,102079.09
2022-12-22T19:16:52.154Z,102078.94
2022-12-22T19:19:19.736Z,102077.94
2022-12-22T19:21:50.601Z,102084.06
2022-12-22T19:24:22.740Z,102086.34
2022-12-22T19:26:49.836Z,102091.78
2022-12-22T19:29:20.852Z,102098.13
2022-12-22T19:31:48.818Z,102093.63
2022-12-22T19:34:21.712Z,102098.94
2022-12-22T19:36:54.153Z,102094.66
2022-12-22T19:39:24.547Z,102093.81
2022-12-22T19:41:54.064Z,102100.66
2022-12-22T19:44:22.810Z,102095.44
2022-12-22T19:46:51.893Z,102091.59
2022-12-22T19:49:21.538Z,102103.19
2022-12-22T19:51:49.677Z,102100.38
2022-12-22T19:54:19.973Z,102081.25
2022-12-22T19:56:48.932Z,102088.28
2022-12-22T19:59:28.270Z,102083.84
2022-12-22T20:02:01.481Z,102077.53
2022-12-22T20:04:29.092Z,102073.16
2022-12-22T20:06:57.329Z,102066.03
2022-12-22T20:09:28.299Z,102066.91
2022-12-22T20:11:58.262Z,102073.09
2022-12-22T20:14:26.934Z,102059.91
2022-12-22T20:16:55.446Z,102068.69
2022-12-22T20:19:32.012Z,102062.56
2022-12-22T20:22:01.081Z,102059.94
2022-12-22T20:24:37.284Z,102059.94
2022-12-22T20:27:06.264Z,102063.38
2022-12-22T20:29:33.297Z,102078.97
2022-12-22T20:32:00.387Z,102071.84
2022-12-22T20:34:29.120Z,102063.19
2022-12-22T20:37:05.587Z,102062.19
2022-12-22T20:39:32.861Z,102053.31
2022-12-22T20:42:02.748Z,102065.59
2022-12-22T20:44:29.845Z,102060.25
2022-12-22T20:47:01.675Z,102061.06
2022-12-22T20:49:29.589Z,102068.13
2022-12-22T20:51:59.859Z,102066.38
2022-12-22T20:54:30.574Z,102062.81
2022-12-22T20:57:03.211Z,102055.69
2022-12-22T20:59:32.036Z,102058.41
2022-12-22T21:01:59.455Z,102053.38
2022-12-22T21:04:27.670Z,102057.63
2022-12-22T21:06:57.192Z,102055.06
2022-12-22T21:09:30.797Z,102062.09
2022-12-22T21:11:59.659Z,102069.84
2022-12-22T21:14:28.341Z,102064.66
2022-12-22T21:16:58.285Z,102063.69
2022-12-22T21:19:30.375Z,102068.13
2022-12-22T21:22:01.989Z,102067.00
2022-12-22T21:24:29.323Z,102064.44
2022-12-22T21:26:58.258Z,102058.31
2022-12-22T21:29:29.517Z,102056.47
2022-12-22T21:31:57.610Z,102057.00
2022-12-22T21:34:26.321Z,102036.06
2022-12-22T21:37:03.666Z,102028.28
2022-12-22T21:39:34.429Z,102021.13
2022-12-22T21:44:52.677Z,102030.44
2022-12-22T21:47:32.500Z,102028.78
2022-12-22T21:50:00.658Z,102022.69
2022-12-22T21:52:27.833Z,102029.72
2022-12-22T21:54:55.930Z,102029.69
2022-12-22T21:57:26.284Z,102037.66
2022-12-22T21:59:56.351Z,102036.63
2022-12-22T22:02:23.834Z,102038.16
2022-12-22T22:04:59.657Z,102044.28
2022-12-22T22:07:27.656Z,102043.47
2022-12-22T22:09:59.496Z,102040.94
2022-12-22T22:12:37.580Z,102034.78
2022-12-22T22:15:05.446Z,102032.16
2022-12-22T22:17:38.459Z,102037.34
2022-12-22T22:20:09.374Z,102029.44
2022-12-22T22:22:37.295Z,102028.56
2022-12-22T22:25:06.201Z,102034.84
2022-12-22T22:27:34.908Z,102039.13
2022-12-22T22:30:05.339Z,102041.03
2022-12-22T22:32:33.421Z,102036.63
2022-12-22T22:35:06.527Z,102025.13
2022-12-22T22:37:35.498Z,102031.47
2022-12-22T22:40:05.611Z,102044.03
2022-12-22T22:42:40.247Z,102029.19
2022-12-22T22:45:08.368Z,102024.50
2022-12-22T22:47:38.532Z,102020.50
2022-12-22T22:50:07.021Z,102018.28
2022-12-22T22:52:34.442Z,102018.34
2022-12-22T22:55:11.321Z,102015.72
2022-12-22T22:57:40.176Z,102027.28
2022-12-22T23:00:12.352Z,102023.13
2022-12-22T23:02:43.175Z,102031.66
2022-12-22T23:05:22.510Z,102036.16
2022-12-22T23:07:53.404Z,102039.09
2022-12-22T23:10:21.856Z,102039.13
2022-12-22T23:12:48.856Z,102024.44
2022-12-22T23:15:16.872Z,102020.19
2022-12-22T23:17:48.093Z,102019.44
2022-12-22T23:20:17.714Z,102023.88
2022-12-22T23:22:44.763Z,102028.22
2022-12-22T23:25:17.379Z,102023.94
2022-12-22T23:27:44.518Z,102026.56
2022-12-22T23:30:12.783Z,102021.41
2022-12-22T23:32:42.560Z,102023.00
2022-12-22T23:35:10.271Z,102023.91
2022-12-22T23:37:40.344Z,102029.00
2022-12-22T23:42:56.972Z,102023.50
2022-12-22T23:45:32.973Z,102019.09
2022-12-22T23:48:03.783Z,102026.03
2022-12-22T23:50:33.634Z,102019.94
2022-12-22T23:53:04.210Z,102017.16
2022-12-22T23:55:31.376Z,102012.78
2022-12-22T23:58:04.988Z,102009.22
